sensor_id;sensor_type;location;lat;lon;timestamp;pressure;altitude;pressure_sealevel;temperature;humidity
6224;BME280;3145;42.726;23.342;2023-02-28T00:00:37;95822.34;;;7.12;nan
6224;BME280;3145;42.726;23.342;2023-02-28T00:03:04;95810.66;;;6.97;nan
6224;BME280;3145;42.726;23.342;2023-02-28T00:05:31;95809.53;;;6.72;nan
6224;BME280;3145;42.726;23.342;2023-02-28T00:07:58;95814.91;;;6.71;nan
6224;BME280;3145;42.726;23.342;2023-02-28T00:10:27;95828.56;;;6.84;nan
6224;BME280;3145;42.726;23.342;2023-02-28T00:12:55;95833.75;;;6.66;nan
6224;BME280;3145;42.726;23.342;2023-02-28T00:15:24;95836.22;;;6.68;nan
6224;BME280;3145;42.726;23.342;2023-02-28T00:17:51;95820.94;;;6.44;nan
6224;BME280;3145;42.726;23.342;2023-02-28T00:20:18;95836.78;;;6.62;nan
6224;BME280;3145;42.726;23.342;2023-02-28T00:22:47;95828.41;;;6.39;nan
6224;BME280;3145;42.726;23.342;2023-02-28T00:25:17;95844.97;;;6.40;nan
6224;BME280;3145;42.726;23.342;2023-02-28T00:27:45;95853.69;;;6.31;nan
6224;BME280;3145;42.726;23.342;2023-02-28T00:30:13;95855.91;;;6.45;nan
6224;BME280;3145;42.726;23.342;2023-02-28T00:32:42;95852.00;;;6.49;nan
6224;BME280;3145;42.726;23.342;2023-02-28T00:35:10;95856.81;;;6.53;nan
6224;BME280;3145;42.726;23.342;2023-02-28T00:37:37;95841.69;;;6.38;nan
6224;BME280;3145;42.726;23.342;2023-02-28T00:40:05;95851.34;;;6.37;nan
6224;BME280;3145;42.726;23.342;2023-02-28T00:42:33;95855.63;;;6.38;nan
6224;BME280;3145;42.726;23.342;2023-02-28T00:44:59;95723.78;;;5.43;nan
6224;BME280;3145;42.726;23.342;2023-02-28T00:47:27;95828.06;;;6.06;nan
6224;BME280;3145;42.726;23.342;2023-02-28T00:49:55;95852.44;;;6.35;nan
6224;BME280;3145;42.726;23.342;2023-02-28T00:52:21;95849.28;;;6.41;nan
6224;BME280;3145;42.726;23.342;2023-02-28T00:54:48;95836.16;;;6.41;nan
6224;BME280;3145;42.726;23.342;2023-02-28T00:57:15;95825.22;;;6.36;nan
6224;BME280;3145;42.726;23.342;2023-02-28T00:59:41;95819.59;;;6.21;nan
6224;BME280;3145;42.726;23.342;2023-02-28T01:02:08;95836.44;;;6.38;nan
6224;BME280;3145;42.726;23.342;2023-02-28T01:04:35;95822.59;;;6.36;nan
6224;BME280;3145;42.726;23.342;2023-02-28T01:07:03;95828.28;;;6.41;nan
6224;BME280;3145;42.726;23.342;2023-02-28T01:09:30;95573.72;;;4.85;nan
6224;BME280;3145;42.726;23.342;2023-02-28T01:11:57;95834.19;;;6.52;nan
6224;BME280;3145;42.726;23.342;2023-02-28T01:14:24;95826.78;;;6.38;nan
6224;BME280;3145;42.726;23.342;2023-02-28T01:16:50;95837.41;;;6.37;nan
6224;BME280;3145;42.726;23.342;2023-02-28T01:19:18;95782.22;;;6.10;nan
6224;BME280;3145;42.726;23.342;2023-02-28T01:21:44;95788.84;;;6.14;nan
6224;BME280;3145;42.726;23.342;2023-02-28T01:24:12;95816.69;;;6.34;nan
6224;BME280;3145;42.726;23.342;2023-02-28T01:26:39;95815.59;;;6.27;nan
6224;BME280;3145;42.726;23.342;2023-02-28T01:29:06;95749.25;;;5.79;nan
6224;BME280;3145;42.726;23.342;2023-02-28T01:31:33;95829.41;;;6.29;nan
6224;BME280;3145;42.726;23.342;2023-02-28T01:33:59;95817.28;;;6.18;nan
6224;BME280;3145;42.726;23.342;2023-02-28T01:36:26;95827.72;;;6.28;nan
6224;BME280;3145;42.726;23.342;2023-02-28T01:38:53;95810.09;;;6.20;nan
6224;BME280;3145;42.726;23.342;2023-02-28T01:41:23;95802.66;;;6.06;nan
6224;BME280;3145;42.726;23.342;2023-02-28T01:43:56;95831.59;;;6.24;nan
6224;BME280;3145;42.726;23.342;2023-02-28T01:46:23;95794.38;;;6.11;nan
6224;BME280;3145;42.726;23.342;2023-02-28T01:48:52;95835.91;;;6.25;nan
6224;BME280;3145;42.726;23.342;2023-02-28T01:51:24;95817.69;;;6.14;nan
6224;BME280;3145;42.726;23.342;2023-02-28T01:53:56;95830.81;;;6.23;nan
6224;BME280;3145;42.726;23.342;2023-02-28T01:56:29;95835.06;;;6.24;nan
6224;BME280;3145;42.726;23.342;2023-02-28T01:58:57;95835.22;;;6.23;nan
6224;BME280;3145;42.726;23.342;2023-02-28T02:01:25;95828.59;;;6.19;nan
6224;BME280;3145;42.726;23.342;2023-02-28T02:03:55;95828.84;;;6.16;nan
6224;BME280;3145;42.726;23.342;2023-02-28T02:06:23;95831.34;;;6.17;nan
6224;BME280;3145;42.726;23.342;2023-02-28T02:08:51;95834.66;;;6.19;nan
6224;BME280;3145;42.726;23.342;2023-02-28T02:11:20;95791.88;;;6.00;nan
6224;BME280;3145;42.726;23.342;2023-02-28T02:14:04;95782.25;;;5.91;nan
6224;BME280;3145;42.726;23.342;2023-02-28T02:16:46;95832.19;;;6.18;nan
6224;BME280;3145;42.726;23.342;2023-02-28T02:19:37;95778.13;;;5.88;nan
6224;BME280;3145;42.726;23.342;2023-02-28T02:22:26;95810.69;;;6.05;nan
6224;BME280;3145;42.726;23.342;2023-02-28T02:25:12;95814.22;;;6.13;nan
6224;BME280;3145;42.726;23.342;2023-02-28T02:30:55;95816.44;;;6.08;nan
6224;BME280;3145;42.726;23.342;2023-02-28T02:33:37;95770.94;;;5.71;nan
6224;BME280;3145;42.726;23.342;2023-02-28T02:36:18;95822.41;;;6.01;nan
6224;BME280;3145;42.726;23.342;2023-02-28T02:38:50;95838.16;;;6.01;nan
6224;BME280;3145;42.726;23.342;2023-02-28T02:41:27;95840.78;;;6.01;nan
6224;BME280;3145;42.726;23.342;2023-02-28T02:44:01;95685.72;;;5.10;nan
6224;BME280;3145;42.726;23.342;2023-02-28T02:46:32;95812.91;;;5.90;nan
6224;BME280;3145;42.726;23.342;2023-02-28T02:49:00;95844.63;;;6.06;nan
6224;BME280;3145;42.726;23.342;2023-02-28T02:51:32;95842.53;;;6.10;nan
6224;BME280;3145;42.726;23.342;2023-02-28T02:54:03;95754.09;;;5.55;nan
6224;BME280;3145;42.726;23.342;2023-02-28T02:56:33;95824.19;;;6.00;nan
6224;BME280;3145;42.726;23.342;2023-02-28T02:59:03;95844.91;;;6.13;nan
6224;BME280;3145;42.726;23.342;2023-02-28T03:01:31;95838.94;;;6.11;nan
6224;BME280;3145;42.726;23.342;2023-02-28T03:04:01;95810.13;;;5.92;nan
6224;BME280;3145;42.726;23.342;2023-02-28T03:06:28;95836.75;;;6.06;nan
6224;BME280;3145;42.726;23.342;2023-02-28T03:08:57;95843.38;;;6.01;nan
6224;BME280;3145;42.726;23.342;2023-02-28T03:11:23;95855.66;;;6.10;nan
6224;BME280;3145;42.726;23.342;2023-02-28T03:14:10;95845.56;;;5.96;nan
6224;BME280;3145;42.726;23.342;2023-02-28T03:16:53;95860.78;;;6.02;nan
6224;BME280;3145;42.726;23.342;2023-02-28T03:19:44;95875.41;;;5.95;nan
6224;BME280;3145;42.726;23.342;2023-02-28T03:22:19;95878.72;;;5.87;nan
6224;BME280;3145;42.726;23.342;2023-02-28T03:24:56;95886.00;;;5.84;nan
6224;BME280;3145;42.726;23.342;2023-02-28T03:27:27;95880.75;;;5.65;nan
6224;BME280;3145;42.726;23.342;2023-02-28T03:29:59;95879.19;;;5.53;nan
6224;BME280;3145;42.726;23.342;2023-02-28T03:32:31;95878.66;;;5.59;nan
6224;BME280;3145;42.726;23.342;2023-02-28T03:35:02;95882.91;;;5.60;nan
6224;BME280;3145;42.726;23.342;2023-02-28T03:37:34;95887.06;;;5.72;nan
6224;BME280;3145;42.726;23.342;2023-02-28T03:40:06;95888.16;;;5.69;nan
6224;BME280;3145;42.726;23.342;2023-02-28T03:42:36;95876.53;;;5.34;nan
6224;BME280;3145;42.726;23.342;2023-02-28T03:45:05;95889.13;;;5.59;nan
6224;BME280;3145;42.726;23.342;2023-02-28T03:47:38;95880.13;;;5.52;nan
6224;BME280;3145;42.726;23.342;2023-02-28T03:50:09;95879.06;;;5.64;nan
6224;BME280;3145;42.726;23.342;2023-02-28T03:52:42;95892.03;;;5.75;nan
6224;BME280;3145;42.726;23.342;2023-02-28T03:55:15;95887.38;;;5.69;nan
6224;BME280;3145;42.726;23.342;2023-02-28T03:57:50;95887.63;;;5.66;nan
6224;BME280;3145;42.726;23.342;2023-02-28T04:00:20;95879.06;;;5.64;nan
6224;BME280;3145;42.726;23.342;2023-02-28T04:02:47;95902.03;;;5.81;nan
6224;BME280;3145;42.726;23.342;2023-02-28T04:05:18;95905.56;;;5.80;nan
6224;BME280;3145;42.726;23.342;2023-02-28T04:07:45;95873.00;;;5.63;nan
6224;BME280;3145;42.726;23.342;2023-02-28T04:10:13;95890.09;;;5.58;nan
6224;BME280;3145;42.726;23.342;2023-02-28T04:12:40;95858.31;;;5.32;nan
6224;BME280;3145;42.726;23.342;2023-02-28T04:15:08;95884.09;;;5.27;nan
6224;BME280;3145;42.726;23.342;2023-02-28T04:17:35;95900.28;;;5.42;nan
6224;BME280;3145;42.726;23.342;2023-02-28T04:20:02;95876.78;;;5.31;nan
6224;BME280;3145;42.726;23.342;2023-02-28T04:22:35;95805.56;;;4.87;nan
6224;BME280;3145;42.726;23.342;2023-02-28T04:25:02;95899.69;;;5.29;nan
6224;BME280;3145;42.726;23.342;2023-02-28T04:27:30;95901.09;;;5.03;nan
6224;BME280;3145;42.726;23.342;2023-02-28T04:29:56;95898.78;;;5.09;nan
6224;BME280;3145;42.726;23.342;2023-02-28T04:32:23;95902.06;;;5.02;nan
6224;BME280;3145;42.726;23.342;2023-02-28T04:34:50;95900.13;;;5.03;nan
6224;BME280;3145;42.726;23.342;2023-02-28T04:37:16;95894.25;;;4.81;nan
6224;BME280;3145;42.726;23.342;2023-02-28T04:39:43;95907.50;;;4.89;nan
6224;BME280;3145;42.726;23.342;2023-02-28T04:42:10;95907.38;;;4.90;nan
6224;BME280;3145;42.726;23.342;2023-02-28T04:44:39;95912.06;;;4.96;nan
6224;BME280;3145;42.726;23.342;2023-02-28T04:47:06;95908.59;;;5.17;nan
6224;BME280;3145;42.726;23.342;2023-02-28T04:49:33;95892.56;;;5.10;nan
6224;BME280;3145;42.726;23.342;2023-02-28T04:52:00;95906.22;;;5.04;nan
6224;BME280;3145;42.726;23.342;2023-02-28T04:54:27;95917.31;;;5.27;nan
6224;BME280;3145;42.726;23.342;2023-02-28T04:56:54;95779.97;;;4.31;nan
6224;BME280;3145;42.726;23.342;2023-02-28T04:59:21;95912.88;;;5.18;nan
6224;BME280;3145;42.726;23.342;2023-02-28T05:01:49;95924.19;;;5.28;nan
6224;BME280;3145;42.726;23.342;2023-02-28T05:04:16;95920.34;;;5.32;nan
6224;BME280;3145;42.726;23.342;2023-02-28T05:06:44;95843.19;;;4.96;nan
6224;BME280;3145;42.726;23.342;2023-02-28T05:09:10;95908.53;;;5.47;nan
6224;BME280;3145;42.726;23.342;2023-02-28T05:11:40;95895.84;;;5.42;nan
6224;BME280;3145;42.726;23.342;2023-02-28T05:14:11;95829.56;;;5.02;nan
6224;BME280;3145;42.726;23.342;2023-02-28T05:16:38;95921.81;;;5.55;nan
6224;BME280;3145;42.726;23.342;2023-02-28T05:19:06;95862.34;;;4.96;nan
6224;BME280;3145;42.726;23.342;2023-02-28T05:21:34;95918.44;;;5.34;nan
6224;BME280;3145;42.726;23.342;2023-02-28T05:24:04;95938.59;;;5.43;nan
6224;BME280;3145;42.726;23.342;2023-02-28T05:26:34;95939.44;;;5.43;nan
6224;BME280;3145;42.726;23.342;2023-02-28T05:29:01;95935.59;;;5.47;nan
6224;BME280;3145;42.726;23.342;2023-02-28T05:31:28;95948.72;;;5.57;nan
6224;BME280;3145;42.726;23.342;2023-02-28T05:33:55;95952.72;;;5.61;nan
6224;BME280;3145;42.726;23.342;2023-02-28T05:36:23;95946.91;;;5.57;nan
6224;BME280;3145;42.726;23.342;2023-02-28T05:38:50;95949.41;;;5.59;nan
6224;BME280;3145;42.726;23.342;2023-02-28T05:41:19;95950.53;;;5.66;nan
6224;BME280;3145;42.726;23.342;2023-02-28T05:43:46;95956.75;;;5.65;nan
6224;BME280;3145;42.726;23.342;2023-02-28T05:46:14;95948.59;;;5.68;nan
6224;BME280;3145;42.726;23.342;2023-02-28T05:48:42;95963.84;;;5.83;nan
6224;BME280;3145;42.726;23.342;2023-02-28T05:51:09;95959.56;;;5.92;nan
6224;BME280;3145;42.726;23.342;2023-02-28T05:53:37;95959.56;;;5.92;nan
6224;BME280;3145;42.726;23.342;2023-02-28T05:56:05;95965.44;;;5.75;nan
6224;BME280;3145;42.726;23.342;2023-02-28T05:58:32;95963.53;;;5.77;nan
6224;BME280;3145;42.726;23.342;2023-02-28T06:01:00;95951.88;;;5.60;nan
6224;BME280;3145;42.726;23.342;2023-02-28T06:03:44;95968.78;;;5.77;nan
6224;BME280;3145;42.726;23.342;2023-02-28T06:06:11;95975.28;;;5.43;nan
6224;BME280;3145;42.726;23.342;2023-02-28T06:08:39;95974.59;;;5.50;nan
6224;BME280;3145;42.726;23.342;2023-02-28T06:11:08;95968.38;;;5.42;nan
6224;BME280;3145;42.726;23.342;2023-02-28T06:13:35;95956.59;;;5.27;nan
6224;BME280;3145;42.726;23.342;2023-02-28T06:16:02;95967.19;;;5.25;nan
6224;BME280;3145;42.726;23.342;2023-02-28T06:18:29;95968.03;;;5.26;nan
6224;BME280;3145;42.726;23.342;2023-02-28T06:20:56;95953.13;;;5.17;nan
6224;BME280;3145;42.726;23.342;2023-02-28T06:23:23;95970.59;;;5.37;nan
6224;BME280;3145;42.726;23.342;2023-02-28T06:25:51;95977.03;;;5.33;nan
6224;BME280;3145;42.726;23.342;2023-02-28T06:28:21;95975.09;;;5.35;nan
6224;BME280;3145;42.726;23.342;2023-02-28T06:30:48;95979.91;;;5.30;nan
6224;BME280;3145;42.726;23.342;2023-02-28T06:33:14;95968.03;;;5.26;nan
6224;BME280;3145;42.726;23.342;2023-02-28T06:35:43;95946.75;;;5.10;nan
6224;BME280;3145;42.726;23.342;2023-02-28T06:38:10;95982.38;;;5.22;nan
6224;BME280;3145;42.726;23.342;2023-02-28T06:40:37;95983.72;;;5.16;nan
6224;BME280;3145;42.726;23.342;2023-02-28T06:43:05;95989.00;;;5.26;nan
6224;BME280;3145;42.726;23.342;2023-02-28T06:45:32;95975.19;;;5.24;nan
6224;BME280;3145;42.726;23.342;2023-02-28T06:47:59;95995.72;;;5.49;nan
6224;BME280;3145;42.726;23.342;2023-02-28T06:50:25;95989.50;;;5.50;nan
6224;BME280;3145;42.726;23.342;2023-02-28T06:52:54;95990.19;;;5.52;nan
6224;BME280;3145;42.726;23.342;2023-02-28T06:55:21;95773.69;;;4.33;nan
6224;BME280;3145;42.726;23.342;2023-02-28T06:57:48;95934.75;;;5.47;nan
6224;BME280;3145;42.726;23.342;2023-02-28T07:00:18;95934.22;;;5.62;nan
6224;BME280;3145;42.726;23.342;2023-02-28T07:02:45;95990.13;;;6.02;nan
6224;BME280;3145;42.726;23.342;2023-02-28T07:05:12;95991.50;;;6.16;nan
6224;BME280;3145;42.726;23.342;2023-02-28T07:07:39;95990.53;;;6.07;nan
6224;BME280;3145;42.726;23.342;2023-02-28T07:10:10;95967.72;;;5.89;nan
6224;BME280;3145;42.726;23.342;2023-02-28T07:12:37;95953.09;;;5.86;nan
6224;BME280;3145;42.726;23.342;2023-02-28T07:15:05;95990.00;;;6.23;nan
6224;BME280;3145;42.726;23.342;2023-02-28T07:17:34;95965.97;;;6.18;nan
6224;BME280;3145;42.726;23.342;2023-02-28T07:20:00;95993.16;;;6.45;nan
6224;BME280;3145;42.726;23.342;2023-02-28T07:22:29;95990.41;;;6.56;nan
6224;BME280;3145;42.726;23.342;2023-02-28T07:24:56;95995.13;;;6.72;nan
6224;BME280;3145;42.726;23.342;2023-02-28T07:27:23;95994.81;;;6.84;nan
6224;BME280;3145;42.726;23.342;2023-02-28T07:29:51;95988.88;;;6.92;nan
6224;BME280;3145;42.726;23.342;2023-02-28T07:32:17;95992.72;;;6.97;nan
6224;BME280;3145;42.726;23.342;2023-02-28T07:34:46;95992.41;;;7.10;nan
6224;BME280;3145;42.726;23.342;2023-02-28T07:37:13;95978.88;;;7.05;nan
6224;BME280;3145;42.726;23.342;2023-02-28T07:39:40;95989.78;;;7.10;nan
6224;BME280;3145;42.726;23.342;2023-02-28T07:42:08;95951.13;;;6.93;nan
6224;BME280;3145;42.726;23.342;2023-02-28T07:44:37;95976.22;;;7.24;nan
6224;BME280;3145;42.726;23.342;2023-02-28T07:47:06;95932.03;;;7.00;nan
6224;BME280;3145;42.726;23.342;2023-02-28T07:49:33;95974.50;;;7.32;nan
6224;BME280;3145;42.726;23.342;2023-02-28T07:52:01;95993.81;;;7.50;nan
6224;BME280;3145;42.726;23.342;2023-02-28T07:54:29;95984.44;;;7.48;nan
6224;BME280;3145;42.726;23.342;2023-02-28T07:56:55;95959.44;;;7.34;nan
6224;BME280;3145;42.726;23.342;2023-02-28T07:59:22;95918.69;;;7.21;nan
6224;BME280;3145;42.726;23.342;2023-02-28T08:01:49;95957.84;;;7.51;nan
6224;BME280;3145;42.726;23.342;2023-02-28T08:04:16;95956.53;;;7.64;nan
6224;BME280;3145;42.726;23.342;2023-02-28T08:06:43;95932.06;;;7.64;nan
6224;BME280;3145;42.726;23.342;2023-02-28T08:09:11;95936.19;;;7.66;nan
6224;BME280;3145;42.726;23.342;2023-02-28T08:11:38;95971.06;;;8.13;nan
6224;BME280;3145;42.726;23.342;2023-02-28T08:14:05;95963.28;;;8.21;nan
6224;BME280;3145;42.726;23.342;2023-02-28T08:16:31;95975.03;;;8.44;nan
6224;BME280;3145;42.726;23.342;2023-02-28T08:18:58;95968.56;;;8.56;nan
6224;BME280;3145;42.726;23.342;2023-02-28T08:21:25;95869.06;;;8.07;nan
6224;BME280;3145;42.726;23.342;2023-02-28T08:23:52;95957.31;;;8.71;nan
6224;BME280;3145;42.726;23.342;2023-02-28T08:26:20;95986.41;;;9.05;nan
6224;BME280;3145;42.726;23.342;2023-02-28T08:28:47;95981.88;;;9.15;nan
6224;BME280;3145;42.726;23.342;2023-02-28T08:31:15;95985.06;;;9.26;nan
6224;BME280;3145;42.726;23.342;2023-02-28T08:33:42;95947.97;;;9.20;nan
6224;BME280;3145;42.726;23.342;2023-02-28T08:36:10;95966.16;;;9.31;nan
6224;BME280;3145;42.726;23.342;2023-02-28T08:38:37;95977.31;;;9.50;nan
6224;BME280;3145;42.726;23.342;2023-02-28T08:41:08;95982.94;;;9.22;nan
6224;BME280;3145;42.726;23.342;2023-02-28T08:43:37;95994.53;;;9.37;nan
6224;BME280;3145;42.726;23.342;2023-02-28T08:46:04;95985.88;;;9.44;nan
6224;BME280;3145;42.726;23.342;2023-02-28T08:48:33;95982.47;;;9.60;nan
6224;BME280;3145;42.726;23.342;2023-02-28T08:51:05;95987.13;;;9.66;nan
6224;BME280;3145;42.726;23.342;2023-02-28T08:53:34;95954.44;;;9.59;nan
6224;BME280;3145;42.726;23.342;2023-02-28T08:56:03;95977.16;;;9.86;nan
6224;BME280;3145;42.726;23.342;2023-02-28T08:58:30;95943.47;;;9.72;nan
6224;BME280;3145;42.726;23.342;2023-02-28T09:00:58;95973.09;;;9.99;nan
6224;BME280;3145;42.726;23.342;2023-02-28T09:03:25;95981.34;;;10.04;nan
6224;BME280;3145;42.726;23.342;2023-02-28T09:05:57;95984.34;;;10.09;nan
6224;BME280;3145;42.726;23.342;2023-02-28T09:08:25;95976.47;;;9.76;nan
6224;BME280;3145;42.726;23.342;2023-02-28T09:10:52;95978.53;;;9.64;nan
6224;BME280;3145;42.726;23.342;2023-02-28T09:13:20;95973.91;;;9.58;nan
6224;BME280;3145;42.726;23.342;2023-02-28T09:15:47;95980.00;;;9.58;nan
6224;BME280;3145;42.726;23.342;2023-02-28T09:18:15;95979.94;;;9.50;nan
6224;BME280;3145;42.726;23.342;2023-02-28T09:20:42;95970.88;;;9.53;nan
6224;BME280;3145;42.726;23.342;2023-02-28T09:23:10;95881.63;;;8.99;nan
6224;BME280;3145;42.726;23.342;2023-02-28T09:25:45;95933.91;;;9.45;nan
6224;BME280;3145;42.726;23.342;2023-02-28T09:28:12;95906.19;;;9.33;nan
6224;BME280;3145;42.726;23.342;2023-02-28T09:30:39;95969.69;;;9.81;nan
6224;BME280;3145;42.726;23.342;2023-02-28T09:33:06;95975.00;;;9.89;nan
6224;BME280;3145;42.726;23.342;2023-02-28T09:35:34;95952.94;;;9.90;nan
6224;BME280;3145;42.726;23.342;2023-02-28T09:38:02;95953.91;;;9.89;nan
6224;BME280;3145;42.726;23.342;2023-02-28T09:40:30;95959.03;;;9.91;nan
6224;BME280;3145;42.726;23.342;2023-02-28T09:42:59;95973.72;;;9.93;nan
6224;BME280;3145;42.726;23.342;2023-02-28T09:45:30;95861.38;;;9.41;nan
6224;BME280;3145;42.726;23.342;2023-02-28T09:48:01;95974.69;;;9.92;nan
6224;BME280;3145;42.726;23.342;2023-02-28T09:50:35;95962.53;;;9.99;nan
6224;BME280;3145;42.726;23.342;2023-02-28T09:53:06;95962.13;;;10.20;nan
6224;BME280;3145;42.726;23.342;2023-02-28T09:55:39;95986.09;;;10.26;nan
6224;BME280;3145;42.726;23.342;2023-02-28T09:58:16;95916.22;;;10.13;nan
6224;BME280;3145;42.726;23.342;2023-02-28T10:00:46;95961.34;;;10.43;nan
6224;BME280;3145;42.726;23.342;2023-02-28T10:03:30;95952.09;;;10.47;nan
6224;BME280;3145;42.726;23.342;2023-02-28T10:06:07;95959.72;;;10.50;nan
6224;BME280;3145;42.726;23.342;2023-02-28T10:08:41;95961.66;;;10.40;nan
6224;BME280;3145;42.726;23.342;2023-02-28T10:11:12;95950.13;;;10.49;nan
6224;BME280;3145;42.726;23.342;2023-02-28T10:13:50;95856.91;;;9.91;nan
6224;BME280;3145;42.726;23.342;2023-02-28T10:16:22;95937.91;;;10.56;nan
6224;BME280;3145;42.726;23.342;2023-02-28T10:18:52;95933.94;;;10.52;nan
6224;BME280;3145;42.726;23.342;2023-02-28T10:21:26;95903.91;;;10.37;nan
6224;BME280;3145;42.726;23.342;2023-02-28T10:24:02;95938.06;;;10.71;nan
6224;BME280;3145;42.726;23.342;2023-02-28T10:26:30;95932.63;;;10.72;nan
6224;BME280;3145;42.726;23.342;2023-02-28T10:28:58;95936.09;;;10.73;nan
6224;BME280;3145;42.726;23.342;2023-02-28T10:31:24;95933.94;;;10.84;nan
6224;BME280;3145;42.726;23.342;2023-02-28T10:33:51;95934.94;;;10.75;nan
6224;BME280;3145;42.726;23.342;2023-02-28T10:36:20;95895.78;;;10.63;nan
6224;BME280;3145;42.726;23.342;2023-02-28T10:38:48;95926.69;;;10.70;nan
6224;BME280;3145;42.726;23.342;2023-02-28T10:41:27;95864.28;;;10.53;nan
6224;BME280;3145;42.726;23.342;2023-02-28T10:44:12;95925.97;;;11.16;nan
6224;BME280;3145;42.726;23.342;2023-02-28T10:46:40;95911.09;;;11.15;nan
6224;BME280;3145;42.726;23.342;2023-02-28T10:49:14;95851.31;;;10.98;nan
6224;BME280;3145;42.726;23.342;2023-02-28T10:51:41;95905.72;;;11.47;nan
6224;BME280;3145;42.726;23.342;2023-02-28T10:54:18;95876.50;;;11.33;nan
6224;BME280;3145;42.726;23.342;2023-02-28T10:56:51;95896.59;;;11.58;nan
6224;BME280;3145;42.726;23.342;2023-02-28T10:59:32;95868.09;;;11.29;nan
6224;BME280;3145;42.726;23.342;2023-02-28T11:01:59;95892.81;;;11.52;nan
6224;BME280;3145;42.726;23.342;2023-02-28T11:04:36;95883.56;;;11.56;nan
6224;BME280;3145;42.726;23.342;2023-02-28T11:07:09;95877.81;;;11.83;nan
6224;BME280;3145;42.726;23.342;2023-02-28T11:09:46;95884.19;;;11.66;nan
6224;BME280;3145;42.726;23.342;2023-02-28T11:12:20;95814.50;;;10.89;nan
6224;BME280;3145;42.726;23.342;2023-02-28T11:14:49;95861.03;;;11.52;nan
6224;BME280;3145;42.726;23.342;2023-02-28T11:17:20;95875.53;;;11.80;nan
6224;BME280;3145;42.726;23.342;2023-02-28T11:19:51;95866.66;;;11.65;nan
6224;BME280;3145;42.726;23.342;2023-02-28T11:22:21;95834.56;;;11.68;nan
6224;BME280;3145;42.726;23.342;2023-02-28T11:24:53;95863.47;;;11.70;nan
6224;BME280;3145;42.726;23.342;2023-02-28T11:27:45;95863.00;;;11.66;nan
6224;BME280;3145;42.726;23.342;2023-02-28T11:30:34;95865.28;;;11.77;nan
6224;BME280;3145;42.726;23.342;2023-02-28T11:33:20;95836.59;;;11.50;nan
6224;BME280;3145;42.726;23.342;2023-02-28T11:35:49;95853.97;;;11.83;nan
6224;BME280;3145;42.726;23.342;2023-02-28T11:38:16;95853.44;;;11.57;nan
6224;BME280;3145;42.726;23.342;2023-02-28T11:40:49;95860.06;;;11.61;nan
6224;BME280;3145;42.726;23.342;2023-02-28T11:43:29;95841.38;;;11.63;nan
6224;BME280;3145;42.726;23.342;2023-02-28T11:46:06;95832.25;;;11.57;nan
6224;BME280;3145;42.726;23.342;2023-02-28T11:48:41;95864.03;;;11.57;nan
6224;BME280;3145;42.726;23.342;2023-02-28T11:51:19;95844.69;;;11.49;nan
6224;BME280;3145;42.726;23.342;2023-02-28T11:53:58;95860.06;;;11.61;nan
6224;BME280;3145;42.726;23.342;2023-02-28T11:56:32;95713.91;;;10.82;nan
6224;BME280;3145;42.726;23.342;2023-02-28T11:59:13;95806.44;;;11.67;nan
6224;BME280;3145;42.726;23.342;2023-02-28T12:01:59;95819.72;;;11.51;nan
6224;BME280;3145;42.726;23.342;2023-02-28T12:04:41;95804.66;;;11.52;nan
6224;BME280;3145;42.726;23.342;2023-02-28T12:07:19;95844.97;;;12.00;nan
6224;BME280;3145;42.726;23.342;2023-02-28T12:09:59;95772.06;;;11.51;nan
6224;BME280;3145;42.726;23.342;2023-02-28T12:12:39;95810.19;;;11.73;nan
6224;BME280;3145;42.726;23.342;2023-02-28T12:15:23;95822.09;;;11.77;nan
6224;BME280;3145;42.726;23.342;2023-02-28T12:18:04;95862.34;;;11.72;nan
6224;BME280;3145;42.726;23.342;2023-02-28T12:20:39;95836.25;;;11.53;nan
6224;BME280;3145;42.726;23.342;2023-02-28T12:23:22;95860.38;;;11.58;nan
6224;BME280;3145;42.726;23.342;2023-02-28T12:26:11;95852.94;;;11.54;nan
6224;BME280;3145;42.726;23.342;2023-02-28T12:28:46;95842.53;;;11.60;nan
6224;BME280;3145;42.726;23.342;2023-02-28T12:31:19;95824.06;;;11.36;nan
6224;BME280;3145;42.726;23.342;2023-02-28T12:33:51;95840.72;;;11.53;nan
6224;BME280;3145;42.726;23.342;2023-02-28T12:36:19;95831.34;;;11.42;nan
6224;BME280;3145;42.726;23.342;2023-02-28T12:38:54;95859.13;;;11.38;nan
6224;BME280;3145;42.726;23.342;2023-02-28T12:41:27;95836.13;;;11.47;nan
6224;BME280;3145;42.726;23.342;2023-02-28T12:44:01;95842.22;;;11.47;nan
6224;BME280;3145;42.726;23.342;2023-02-28T12:46:32;95829.66;;;11.49;nan
6224;BME280;3145;42.726;23.342;2023-02-28T12:49:05;95784.41;;;11.28;nan
6224;BME280;3145;42.726;23.342;2023-02-28T12:51:34;95807.22;;;11.37;nan
6224;BME280;3145;42.726;23.342;2023-02-28T12:54:10;95831.00;;;11.45;nan
6224;BME280;3145;42.726;23.342;2023-02-28T12:56:44;95849.59;;;11.29;nan
6224;BME280;3145;42.726;23.342;2023-02-28T12:59:22;95812.22;;;11.24;nan
6224;BME280;3145;42.726;23.342;2023-02-28T13:02:09;95825.88;;;11.44;nan
6224;BME280;3145;42.726;23.342;2023-02-28T13:04:55;95766.81;;;11.13;nan
6224;BME280;3145;42.726;23.342;2023-02-28T13:10:38;95826.06;;;11.34;nan
6224;BME280;3145;42.726;23.342;2023-02-28T13:13:06;95838.34;;;11.27;nan
6224;BME280;3145;42.726;23.342;2023-02-28T13:15:34;95718.06;;;10.77;nan
6224;BME280;3145;42.726;23.342;2023-02-28T13:18:27;95821.63;;;11.35;nan
6224;BME280;3145;42.726;23.342;2023-02-28T13:20:55;95836.53;;;11.28;nan
6224;BME280;3145;42.726;23.342;2023-02-28T13:26:22;95820.81;;;11.26;nan
6224;BME280;3145;42.726;23.342;2023-02-28T13:28:59;95828.06;;;11.32;nan
6224;BME280;3145;42.726;23.342;2023-02-28T13:31:27;95806.22;;;11.38;nan
6224;BME280;3145;42.726;23.342;2023-02-28T13:34:14;95814.44;;;11.43;nan
6224;BME280;3145;42.726;23.342;2023-02-28T13:36:41;95818.69;;;11.52;nan
6224;BME280;3145;42.726;23.342;2023-02-28T13:42:24;95811.09;;;11.57;nan
6224;BME280;3145;42.726;23.342;2023-02-28T13:45:22;95806.22;;;11.38;nan
6224;BME280;3145;42.726;23.342;2023-02-28T13:47:56;95773.09;;;11.12;nan
6224;BME280;3145;42.726;23.342;2023-02-28T13:50:29;95801.25;;;11.35;nan
6224;BME280;3145;42.726;23.342;2023-02-28T13:55:46;95793.28;;;11.43;nan
6224;BME280;3145;42.726;23.342;2023-02-28T13:58:33;95786.81;;;11.46;nan
6224;BME280;3145;42.726;23.342;2023-02-28T14:01:22;95767.25;;;11.24;nan
6224;BME280;3145;42.726;23.342;2023-02-28T14:04:12;95796.63;;;11.37;nan
6224;BME280;3145;42.726;23.342;2023-02-28T14:06:47;95803.94;;;11.27;nan
6224;BME280;3145;42.726;23.342;2023-02-28T14:09:23;95795.91;;;11.13;nan
6224;BME280;3145;42.726;23.342;2023-02-28T14:11:50;95799.22;;;11.15;nan
6224;BME280;3145;42.726;23.342;2023-02-28T14:14:55;95802.31;;;11.26;nan
6224;BME280;3145;42.726;23.342;2023-02-28T14:17:25;95804.00;;;11.11;nan